Atchison, KS (66002)

2:18 PM CST on February 13, 2016 (GMT -0600)
Shannon Township | | Change Station
CLOSE
Current Station
Personal Weather Station
Location: Atchison, KS
Elevation: 942 ft
Nearby Weather Stations

Elev 942 ft 39.56 °N, 95.16 °W | Updated 8 minutes ago

Overcast
Overcast
20.5 °F
Feels Like 15 °F
N
4.0
Wind Variable Wind from East
Gusts 4.0 mph

Today
High -- | Low -- °F
--% Chance of Precip.
Yesterday
High -- | Low -- °F
Precip. -- in
Pressure 30.53 in
Visibility 10.0 miles
Clouds Overcast 5500 ft
Windchill 15 °F
Dew Point 2 °F
Humidity 43%
Rainfall 0.00 in
Snow Depth Not available.
7:15 AM 5:54 PM
Waxing Crescent, 33% visible
METAR KSTJ 131953Z 12011KT 10SM OVC055 M07/M17 A3048 RMK AO2 SLP337 T10721172
Pressure 30.53 in
Visibility 10.0 miles
Clouds Overcast 5500 ft
Windchill 15 °F
Dew Point 2 °F
Humidity 43%
Rainfall 0.00 in
Snow Depth Not available.
7:15 AM 5:54 PM
Waxing Crescent, 33% visible
METAR KSTJ 131953Z 12011KT 10SM OVC055 M07/M17 A3048 RMK AO2 SLP337 T10721172

10-Day Weather Forecast

Almanac

Astronomy

Feb. 13, 2016 Rise Set
Actual Time
Civil Twilight
Nautical Twilight
Astronomical Twilight
Moon
Length of Visible Light
Length of Day
Tomorrow will be .
, % of the Moon is Illuminated

Today's Extremes

State Highs State Lows

Community

WunderPhotos

Upload Photos

1,892,658 photos uploaded!

WunderBlog® & News

Nearby

Air Quality

  Air Quality AQ Index Pollutant
Not available.

Snow Depth

Station Depth Elevation

Earthquake Activity

City Distance Mag. Time & Date
Minimum magnitude displayed is 2.5.

Coastal Water Temperatures

Place Temperature

Stations

Nearby Weather Stations

Station Location Temp. Windchill Dew Point Humidity Wind Precip. Elev Updated Type
                   

Watches & Warnings

There are currently no watches in effect.